sensor_id;sensor_type;location;lat;lon;timestamp;pressure;altitude;pressure_sealevel;temperature;humidity
56721;BME280;53183;47.412;18.884;2023-11-19T00:00:19;99798.59;;;0.61;100.00
56721;BME280;53183;47.412;18.884;2023-11-19T00:02:47;99802.00;;;0.69;100.00
56721;BME280;53183;47.412;18.884;2023-11-19T00:05:15;99803.81;;;0.58;100.00
56721;BME280;53183;47.412;18.884;2023-11-19T00:07:44;99808.03;;;0.72;100.00
56721;BME280;53183;47.412;18.884;2023-11-19T00:10:13;99799.38;;;0.71;100.00
56721;BME280;53183;47.412;18.884;2023-11-19T00:12:43;99783.84;;;0.63;100.00
56721;BME280;53183;47.412;18.884;2023-11-19T00:15:12;99785.47;;;0.75;100.00
56721;BME280;53183;47.412;18.884;2023-11-19T00:17:41;99794.91;;;0.87;100.00
56721;BME280;53183;47.412;18.884;2023-11-19T00:20:17;99790.63;;;0.80;100.00
56721;BME280;53183;47.412;18.884;2023-11-19T00:22:45;99788.84;;;0.85;100.00
56721;BME280;53183;47.412;18.884;2023-11-19T00:25:20;99791.47;;;0.83;100.00
56721;BME280;53183;47.412;18.884;2023-11-19T00:27:50;99806.09;;;0.93;100.00
56721;BME280;53183;47.412;18.884;2023-11-19T00:30:18;99816.50;;;0.97;100.00
56721;BME280;53183;47.412;18.884;2023-11-19T00:32:45;99821.72;;;0.93;100.00
56721;BME280;53183;47.412;18.884;2023-11-19T00:35:13;99818.34;;;0.82;100.00
56721;BME280;53183;47.412;18.884;2023-11-19T00:37:43;99815.63;;;0.94;100.00
56721;BME280;53183;47.412;18.884;2023-11-19T00:40:13;99807.81;;;0.96;100.00
56721;BME280;53183;47.412;18.884;2023-11-19T00:42:43;99809.63;;;0.89;100.00
56721;BME280;53183;47.412;18.884;2023-11-19T00:45:10;99802.63;;;0.96;100.00
56721;BME280;53183;47.412;18.884;2023-11-19T00:47:40;99794.00;;;0.92;100.00
56721;BME280;53183;47.412;18.884;2023-11-19T00:50:08;99787.87;;;0.95;100.00
56721;BME280;53183;47.412;18.884;2023-11-19T00:52:46;99806.06;;;0.98;100.00
56721;BME280;53183;47.412;18.884;2023-11-19T00:55:15;99807.75;;;1.01;100.00
56721;BME280;53183;47.412;18.884;2023-11-19T00:57:42;99789.56;;;1.01;100.00
56721;BME280;53183;47.412;18.884;2023-11-19T01:00:10;99787.91;;;0.93;100.00
56721;BME280;53183;47.412;18.884;2023-11-19T01:02:48;99792.28;;;0.90;100.00
56721;BME280;53183;47.412;18.884;2023-11-19T01:05:20;99793.97;;;0.91;100.00
56721;BME280;53183;47.412;18.884;2023-11-19T01:07:50;99798.38;;;0.86;100.00
56721;BME280;53183;47.412;18.884;2023-11-19T01:10:20;99801.09;;;0.74;100.00
56721;BME280;53183;47.412;18.884;2023-11-19T01:12:48;99796.00;;;0.63;100.00
56721;BME280;53183;47.412;18.884;2023-11-19T01:15:16;99798.66;;;0.52;100.00
56721;BME280;53183;47.412;18.884;2023-11-19T01:17:46;99785.63;;;0.57;100.00
56721;BME280;53183;47.412;18.884;2023-11-19T01:20:16;99791.78;;;0.46;100.00
56721;BME280;53183;47.412;18.884;2023-11-19T01:22:44;99782.22;;;0.50;100.00
56721;BME280;53183;47.412;18.884;2023-11-19T01:25:12;99783.09;;;0.51;100.00
56721;BME280;53183;47.412;18.884;2023-11-19T01:27:39;99779.53;;;0.61;100.00
56721;BME280;53183;47.412;18.884;2023-11-19T01:30:07;99783.91;;;0.53;100.00
56721;BME280;53183;47.412;18.884;2023-11-19T01:32:37;99782.97;;;0.64;100.00
56721;BME280;53183;47.412;18.884;2023-11-19T01:35:05;99786.44;;;0.63;100.00
56721;BME280;53183;47.412;18.884;2023-11-19T01:37:33;99791.69;;;0.57;100.00
56721;BME280;53183;47.412;18.884;2023-11-19T01:40:02;99788.22;;;0.55;100.00
56721;BME280;53183;47.412;18.884;2023-11-19T01:42:38;99788.22;;;0.58;100.00
56721;BME280;53183;47.412;18.884;2023-11-19T01:45:06;99786.50;;;0.57;100.00
56721;BME280;53183;47.412;18.884;2023-11-19T01:47:35;99792.63;;;0.50;100.00
56721;BME280;53183;47.412;18.884;2023-11-19T01:50:06;99777.97;;;0.40;100.00
56721;BME280;53183;47.412;18.884;2023-11-19T01:52:35;99771.09;;;0.34;100.00
56721;BME280;53183;47.412;18.884;2023-11-19T01:55:08;99769.28;;;0.41;100.00
56721;BME280;53183;47.412;18.884;2023-11-19T01:57:36;99761.47;;;0.42;100.00
56721;BME280;53183;47.412;18.884;2023-11-19T02:00:06;99756.19;;;0.53;100.00
56721;BME280;53183;47.412;18.884;2023-11-19T02:02:40;99750.19;;;0.46;100.00
56721;BME280;53183;47.412;18.884;2023-11-19T02:05:10;99743.16;;;0.58;100.00
56721;BME280;53183;47.412;18.884;2023-11-19T02:07:40;99730.22;;;0.50;100.00
56721;BME280;53183;47.412;18.884;2023-11-19T02:10:07;99732.94;;;0.36;100.00
56721;BME280;53183;47.412;18.884;2023-11-19T02:12:42;99728.53;;;0.44;100.00
56721;BME280;53183;47.412;18.884;2023-11-19T02:15:12;99732.78;;;0.56;100.00
56721;BME280;53183;47.412;18.884;2023-11-19T02:17:39;99738.06;;;0.44;100.00
56721;BME280;53183;47.412;18.884;2023-11-19T02:20:08;99745.03;;;0.40;100.00
56721;BME280;53183;47.412;18.884;2023-11-19T02:22:43;99739.91;;;0.31;100.00
56721;BME280;53183;47.412;18.884;2023-11-19T02:25:17;99730.53;;;0.12;100.00
56721;BME280;53183;47.412;18.884;2023-11-19T02:27:53;99724.44;;;0.13;100.00
56721;BME280;53183;47.412;18.884;2023-11-19T02:30:24;99727.84;;;0.24;100.00
56721;BME280;53183;47.412;18.884;2023-11-19T02:32:55;99730.53;;;0.12;100.00
56721;BME280;53183;47.412;18.884;2023-11-19T02:35:25;99731.53;;;-0.05;100.00
56721;BME280;53183;47.412;18.884;2023-11-19T02:37:56;99739.38;;;-0.12;100.00
56721;BME280;53183;47.412;18.884;2023-11-19T02:40:24;99746.34;;;-0.24;100.00
56721;BME280;53183;47.412;18.884;2023-11-19T02:42:54;99736.84;;;-0.28;100.00
56721;BME280;53183;47.412;18.884;2023-11-19T02:45:23;99724.75;;;-0.29;100.00
56721;BME280;53183;47.412;18.884;2023-11-19T02:47:53;99720.38;;;-0.24;100.00
56721;BME280;53183;47.412;18.884;2023-11-19T02:50:21;99707.44;;;-0.30;100.00
56721;BME280;53183;47.412;18.884;2023-11-19T02:52:55;99709.19;;;-0.32;100.00
56721;BME280;53183;47.412;18.884;2023-11-19T02:55:25;99713.50;;;-0.28;100.00
56721;BME280;53183;47.412;18.884;2023-11-19T02:57:56;99703.13;;;-0.29;100.00
56721;BME280;53183;47.412;18.884;2023-11-19T03:00:26;99708.31;;;-0.34;100.00
56721;BME280;53183;47.412;18.884;2023-11-19T03:03:04;99704.03;;;-0.38;100.00
56721;BME280;53183;47.412;18.884;2023-11-19T03:05:47;99696.19;;;-0.30;100.00
56721;BME280;53183;47.412;18.884;2023-11-19T03:08:16;99689.25;;;-0.25;100.00
56721;BME280;53183;47.412;18.884;2023-11-19T03:10:46;99682.34;;;-0.26;100.00
56721;BME280;53183;47.412;18.884;2023-11-19T03:13:14;99683.16;;;-0.24;100.00
56721;BME280;53183;47.412;18.884;2023-11-19T03:15:42;99690.97;;;-0.26;100.00
56721;BME280;53183;47.412;18.884;2023-11-19T03:18:09;99689.22;;;-0.24;100.00
56721;BME280;53183;47.412;18.884;2023-11-19T03:20:37;99684.06;;;-0.28;100.00
56721;BME280;53183;47.412;18.884;2023-11-19T03:23:04;99670.22;;;-0.33;100.00
56721;BME280;53183;47.412;18.884;2023-11-19T03:25:35;99667.66;;;-0.32;100.00
56721;BME280;53183;47.412;18.884;2023-11-19T03:28:04;99678.88;;;-0.31;100.00
56721;BME280;53183;47.412;18.884;2023-11-19T03:30:33;99678.88;;;-0.30;100.00
56721;BME280;53183;47.412;18.884;2023-11-19T03:33:01;99684.12;;;-0.40;100.00
56721;BME280;53183;47.412;18.884;2023-11-19T03:35:29;99685.00;;;-0.43;100.00
56721;BME280;53183;47.412;18.884;2023-11-19T03:37:57;99692.81;;;-0.44;100.00
56721;BME280;53183;47.412;18.884;2023-11-19T03:40:24;99678.12;;;-0.45;100.00
56721;BME280;53183;47.412;18.884;2023-11-19T03:42:53;99657.28;;;-0.38;100.00
56721;BME280;53183;47.412;18.884;2023-11-19T03:45:20;99648.63;;;-0.37;100.00
56721;BME280;53183;47.412;18.884;2023-11-19T03:47:48;99648.59;;;-0.31;100.00
56721;BME280;53183;47.412;18.884;2023-11-19T03:50:17;99643.34;;;-0.23;100.00
56721;BME280;53183;47.412;18.884;2023-11-19T03:52:48;99640.50;;;0.03;100.00
56721;BME280;53183;47.412;18.884;2023-11-19T03:55:16;99635.41;;;-0.05;100.00
56721;BME280;53183;47.412;18.884;2023-11-19T03:57:44;99627.69;;;-0.12;100.00
56721;BME280;53183;47.412;18.884;2023-11-19T04:00:12;99635.47;;;-0.12;100.00
56721;BME280;53183;47.412;18.884;2023-11-19T04:02:50;99628.56;;;-0.15;100.00
56721;BME280;53183;47.412;18.884;2023-11-19T04:05:18;99626.00;;;-0.16;100.00
56721;BME280;53183;47.412;18.884;2023-11-19T04:07:46;99622.50;;;-0.15;100.00
56721;BME280;53183;47.412;18.884;2023-11-19T04:10:14;99614.72;;;-0.17;100.00
56721;BME280;53183;47.412;18.884;2023-11-19T04:12:43;99608.66;;;-0.17;100.00
56721;BME280;53183;47.412;18.884;2023-11-19T04:15:19;99603.50;;;-0.24;100.00
56721;BME280;53183;47.412;18.884;2023-11-19T04:17:46;99607.03;;;-0.31;100.00
56721;BME280;53183;47.412;18.884;2023-11-19T04:20:14;99603.63;;;-0.36;100.00
56721;BME280;53183;47.412;18.884;2023-11-19T04:22:42;99611.47;;;-0.43;100.00
56721;BME280;53183;47.412;18.884;2023-11-19T04:25:09;99611.47;;;-0.47;100.00
56721;BME280;53183;47.412;18.884;2023-11-19T04:27:38;99609.81;;;-0.55;100.00
56721;BME280;53183;47.412;18.884;2023-11-19T04:30:07;99601.22;;;-0.62;100.00
56721;BME280;53183;47.412;18.884;2023-11-19T04:32:35;99599.50;;;-0.64;100.00
56721;BME280;53183;47.412;18.884;2023-11-19T04:35:03;99596.87;;;-0.58;100.00
56721;BME280;53183;47.412;18.884;2023-11-19T04:37:32;99599.47;;;-0.60;100.00
56721;BME280;53183;47.412;18.884;2023-11-19T04:39:59;99607.31;;;-0.71;100.00
56721;BME280;53183;47.412;18.884;2023-11-19T04:42:29;99599.59;;;-0.75;100.00
56721;BME280;53183;47.412;18.884;2023-11-19T04:44:57;99609.09;;;-0.76;100.00
56721;BME280;53183;47.412;18.884;2023-11-19T04:47:24;99605.66;;;-0.81;100.00
56721;BME280;53183;47.412;18.884;2023-11-19T04:49:51;99610.84;;;-0.81;100.00
56721;BME280;53183;47.412;18.884;2023-11-19T04:52:18;99631.56;;;-0.75;100.00
56721;BME280;53183;47.412;18.884;2023-11-19T04:54:45;99640.16;;;-0.66;100.00
56721;BME280;53183;47.412;18.884;2023-11-19T04:57:13;99627.16;;;-0.56;100.00
56721;BME280;53183;47.412;18.884;2023-11-19T04:59:40;99630.53;;;-0.46;100.00
56721;BME280;53183;47.412;18.884;2023-11-19T05:02:09;99620.97;;;-0.39;100.00
56721;BME280;53183;47.412;18.884;2023-11-19T05:04:36;99611.22;;;-0.10;100.00
56721;BME280;53183;47.412;18.884;2023-11-19T05:07:04;99608.59;;;-0.08;100.00
56721;BME280;53183;47.412;18.884;2023-11-19T05:09:32;99608.50;;;0.01;100.00
56721;BME280;53183;47.412;18.884;2023-11-19T05:11:59;99613.72;;;-0.02;100.00
56721;BME280;53183;47.412;18.884;2023-11-19T05:14:28;99620.66;;;-0.04;100.00
56721;BME280;53183;47.412;18.884;2023-11-19T05:16:55;99612.03;;;-0.08;100.00
56721;BME280;53183;47.412;18.884;2023-11-19T05:19:23;99619.78;;;-0.02;100.00
56721;BME280;53183;47.412;18.884;2023-11-19T05:21:50;99626.69;;;-0.01;100.00
56721;BME280;53183;47.412;18.884;2023-11-19T05:24:19;99623.28;;;-0.06;100.00
56721;BME280;53183;47.412;18.884;2023-11-19T05:26:46;99618.88;;;0.04;100.00
56721;BME280;53183;47.412;18.884;2023-11-19T05:29:14;99615.41;;;0.02;100.00
56721;BME280;53183;47.412;18.884;2023-11-19T05:31:41;99618.03;;;0.04;100.00
56721;BME280;53183;47.412;18.884;2023-11-19T05:34:11;99611.09;;;0.04;100.00
56721;BME280;53183;47.412;18.884;2023-11-19T05:36:38;99599.03;;;-0.05;100.00
56721;BME280;53183;47.412;18.884;2023-11-19T05:39:06;99605.97;;;-0.05;100.00
56721;BME280;53183;47.412;18.884;2023-11-19T05:41:34;99600.75;;;-0.04;100.00
56721;BME280;53183;47.412;18.884;2023-11-19T05:44:01;99617.09;;;0.06;100.00
56721;BME280;53183;47.412;18.884;2023-11-19T05:46:28;99617.06;;;0.14;100.00
56721;BME280;53183;47.412;18.884;2023-11-19T05:48:56;99609.22;;;0.17;100.00
56721;BME280;53183;47.412;18.884;2023-11-19T05:51:23;99597.00;;;0.27;100.00
56721;BME280;53183;47.412;18.884;2023-11-19T05:53:52;99601.28;;;0.31;100.00
56721;BME280;53183;47.412;18.884;2023-11-19T05:56:20;99612.56;;;0.28;100.00
56721;BME280;53183;47.412;18.884;2023-11-19T05:58:49;99612.66;;;0.19;100.00
56721;BME280;53183;47.412;18.884;2023-11-19T06:01:17;99623.06;;;0.19;100.00
56721;BME280;53183;47.412;18.884;2023-11-19T06:03:45;99618.72;;;0.21;100.00
56721;BME280;53183;47.412;18.884;2023-11-19T06:06:18;99602.22;;;0.23;100.00
56721;BME280;53183;47.412;18.884;2023-11-19T06:08:47;99602.19;;;0.30;100.00
56721;BME280;53183;47.412;18.884;2023-11-19T06:11:15;99601.19;;;0.40;100.00
56721;BME280;53183;47.412;18.884;2023-11-19T06:13:54;99595.19;;;0.32;100.00
56721;BME280;53183;47.412;18.884;2023-11-19T06:16:22;99590.84;;;0.37;100.00
56721;BME280;53183;47.412;18.884;2023-11-19T06:18:50;99588.94;;;0.51;100.00
56721;BME280;53183;47.412;18.884;2023-11-19T06:21:18;99582.91;;;0.46;100.00
56721;BME280;53183;47.412;18.884;2023-11-19T06:23:46;99590.66;;;0.49;100.00
56721;BME280;53183;47.412;18.884;2023-11-19T06:26:15;99590.56;;;0.58;100.00
56721;BME280;53183;47.412;18.884;2023-11-19T06:28:43;99587.91;;;0.66;100.00
56721;BME280;53183;47.412;18.884;2023-11-19T06:31:10;99578.31;;;0.69;100.00
56721;BME280;53183;47.412;18.884;2023-11-19T06:33:38;99575.69;;;0.73;100.00
56721;BME280;53183;47.412;18.884;2023-11-19T06:36:08;99569.50;;;0.80;100.00
56721;BME280;53183;47.412;18.884;2023-11-19T06:38:36;99579.91;;;0.80;100.00
56721;BME280;53183;47.412;18.884;2023-11-19T06:41:07;99582.37;;;0.90;100.00
56721;BME280;53183;47.412;18.884;2023-11-19T06:43:36;99579.63;;;1.03;100.00
56721;BME280;53183;47.412;18.884;2023-11-19T06:46:17;99575.03;;;1.20;100.00
56721;BME280;53183;47.412;18.884;2023-11-19T06:48:45;99579.13;;;1.35;100.00
56721;BME280;53183;47.412;18.884;2023-11-19T06:51:13;99574.72;;;1.42;100.00
56721;BME280;53183;47.412;18.884;2023-11-19T06:53:42;99568.50;;;1.50;100.00
56721;BME280;53183;47.412;18.884;2023-11-19T06:56:18;99567.34;;;1.67;100.00
56721;BME280;53183;47.412;18.884;2023-11-19T06:58:47;99561.16;;;1.75;100.00
56721;BME280;53183;47.412;18.884;2023-11-19T07:01:19;99561.09;;;1.77;100.00
56721;BME280;53183;47.412;18.884;2023-11-19T07:03:47;99554.75;;;1.93;100.00
56721;BME280;53183;47.412;18.884;2023-11-19T07:06:16;99555.59;;;1.95;100.00
56721;BME280;53183;47.412;18.884;2023-11-19T07:08:44;99557.19;;;2.02;100.00
56721;BME280;53183;47.412;18.884;2023-11-19T07:11:14;99562.19;;;2.13;100.00
56721;BME280;53183;47.412;18.884;2023-11-19T07:13:43;99558.63;;;2.19;100.00
56721;BME280;53183;47.412;18.884;2023-11-19T07:16:14;99559.94;;;2.41;100.00
56721;BME280;53183;47.412;18.884;2023-11-19T07:18:42;99557.22;;;2.47;100.00
56721;BME280;53183;47.412;18.884;2023-11-19T07:21:11;99550.38;;;2.40;100.00
56721;BME280;53183;47.412;18.884;2023-11-19T07:23:45;99557.28;;;2.43;100.00
56721;BME280;53183;47.412;18.884;2023-11-19T07:26:13;99554.56;;;2.50;100.00
56721;BME280;53183;47.412;18.884;2023-11-19T07:28:41;99561.41;;;2.54;100.00
56721;BME280;53183;47.412;18.884;2023-11-19T07:31:08;99549.00;;;2.66;100.00
56721;BME280;53183;47.412;18.884;2023-11-19T07:33:36;99554.28;;;2.63;100.00
56721;BME280;53183;47.412;18.884;2023-11-19T07:36:04;99551.41;;;2.76;100.00
56721;BME280;53183;47.412;18.884;2023-11-19T07:38:32;99557.84;;;3.00;100.00
56721;BME280;53183;47.412;18.884;2023-11-19T07:41:01;99553.66;;;2.93;100.00
56721;BME280;53183;47.412;18.884;2023-11-19T07:43:28;99559.13;;;2.81;100.00
56721;BME280;53183;47.412;18.884;2023-11-19T07:45:56;99572.97;;;2.85;100.00
56721;BME280;53183;47.412;18.884;2023-11-19T07:48:26;99571.34;;;2.79;100.00
56721;BME280;53183;47.412;18.884;2023-11-19T07:50:54;99576.50;;;2.82;100.00
56721;BME280;53183;47.412;18.884;2023-11-19T07:53:24;99578.81;;;2.96;100.00
56721;BME280;53183;47.412;18.884;2023-11-19T07:55:52;99578.28;;;3.20;100.00
56721;BME280;53183;47.412;18.884;2023-11-19T07:58:20;99584.19;;;3.28;100.00
56721;BME280;53183;47.412;18.884;2023-11-19T08:00:48;99580.63;;;3.33;100.00
56721;BME280;53183;47.412;18.884;2023-11-19T08:03:15;99572.94;;;3.26;100.00
56721;BME280;53183;47.412;18.884;2023-11-19T08:05:47;99572.88;;;3.28;100.00
56721;BME280;53183;47.412;18.884;2023-11-19T08:08:15;99565.22;;;3.20;100.00
56721;BME280;53183;47.412;18.884;2023-11-19T08:10:43;99565.13;;;3.25;100.00
56721;BME280;53183;47.412;18.884;2023-11-19T08:13:15;99557.41;;;3.20;100.00
56721;BME280;53183;47.412;18.884;2023-11-19T08:15:44;99547.41;;;3.38;100.00
56721;BME280;53183;47.412;18.884;2023-11-19T08:18:11;99533.63;;;3.31;100.00
56721;BME280;53183;47.412;18.884;2023-11-19T08:20:39;99527.97;;;3.14;100.00
56721;BME280;53183;47.412;18.884;2023-11-19T08:23:07;99514.91;;;3.12;100.00
56721;BME280;53183;47.412;18.884;2023-11-19T08:25:40;99515.91;;;3.08;100.00
56721;BME280;53183;47.412;18.884;2023-11-19T08:28:07;99502.69;;;3.14;100.00
56721;BME280;53183;47.412;18.884;2023-11-19T08:30:35;99482.94;;;3.04;100.00
56721;BME280;53183;47.412;18.884;2023-11-19T08:33:02;99481.38;;;2.95;100.00
56721;BME280;53183;47.412;18.884;2023-11-19T08:35:32;99505.94;;;2.87;100.00
56721;BME280;53183;47.412;18.884;2023-11-19T08:38:00;99516.81;;;3.05;100.00
56721;BME280;53183;47.412;18.884;2023-11-19T08:40:27;99524.84;;;2.98;100.00
56721;BME280;53183;47.412;18.884;2023-11-19T08:42:57;99523.47;;;3.19;100.00
56721;BME280;53183;47.412;18.884;2023-11-19T08:45:25;99517.50;;;3.14;100.00
56721;BME280;53183;47.412;18.884;2023-11-19T08:47:52;99502.88;;;3.07;100.00
56721;BME280;53183;47.412;18.884;2023-11-19T08:50:22;99483.09;;;3.32;100.00
56721;BME280;53183;47.412;18.884;2023-11-19T08:52:51;99476.34;;;3.59;100.00
56721;BME280;53183;47.412;18.884;2023-11-19T08:55:18;99498.84;;;3.65;100.00
56721;BME280;53183;47.412;18.884;2023-11-19T08:57:47;99497.63;;;3.78;100.00
56721;BME280;53183;47.412;18.884;2023-11-19T09:00:15;99494.91;;;3.83;100.00
56721;BME280;53183;47.412;18.884;2023-11-19T09:02:43;99496.69;;;3.81;100.00
56721;BME280;53183;47.412;18.884;2023-11-19T09:05:11;99504.81;;;3.70;100.00
56721;BME280;53183;47.412;18.884;2023-11-19T09:07:40;99507.97;;;3.83;100.00
56721;BME280;53183;47.412;18.884;2023-11-19T09:10:08;99503.03;;;3.72;100.00
56721;BME280;53183;47.412;18.884;2023-11-19T09:12:36;99501.31;;;3.71;100.00
56721;BME280;53183;47.412;18.884;2023-11-19T09:15:04;99506.50;;;3.72;100.00
56721;BME280;53183;47.412;18.884;2023-11-19T09:17:31;99512.59;;;3.73;100.00
56721;BME280;53183;47.412;18.884;2023-11-19T09:19:59;99514.19;;;3.79;100.00
56721;BME280;53183;47.412;18.884;2023-11-19T09:22:28;99510.69;;;3.78;100.00
56721;BME280;53183;47.412;18.884;2023-11-19T09:24:56;99500.13;;;3.83;100.00
56721;BME280;53183;47.412;18.884;2023-11-19T09:27:33;99510.53;;;3.84;100.00
56721;BME280;53183;47.412;18.884;2023-11-19T09:30:06;99508.09;;;3.78;100.00
56721;BME280;53183;47.412;18.884;2023-11-19T09:32:34;99499.44;;;3.76;100.00
56721;BME280;53183;47.412;18.884;2023-11-19T09:35:02;99502.97;;;3.73;100.00
56721;BME280;53183;47.412;18.884;2023-11-19T09:37:30;99502.00;;;3.78;100.00
56721;BME280;53183;47.412;18.884;2023-11-19T09:39:58;99500.47;;;4.03;100.00
56721;BME280;53183;47.412;18.884;2023-11-19T09:42:28;99493.38;;;4.07;100.00
56721;BME280;53183;47.412;18.884;2023-11-19T09:44:56;99477.19;;;4.25;99.00
56721;BME280;53183;47.412;18.884;2023-11-19T09:47:25;99475.19;;;4.35;97.01
56721;BME280;53183;47.412;18.884;2023-11-19T09:49:56;99477.31;;;4.20;98.51
56721;BME280;53183;47.412;18.884;2023-11-19T09:52:26;99482.69;;;4.16;98.51
56721;BME280;53183;47.412;18.884;2023-11-19T09:54:53;99477.31;;;4.20;98.85
56721;BME280;53183;47.412;18.884;2023-11-19T09:57:20;99477.75;;;4.36;98.39
56721;BME280;53183;47.412;18.884;2023-11-19T09:59:49;99467.34;;;4.35;98.05
56721;BME280;53183;47.412;18.884;2023-11-19T10:02:18;99455.81;;;4.40;97.34
56721;BME280;53183;47.412;18.884;2023-11-19T10:04:49;99455.31;;;4.28;97.53
56721;BME280;53183;47.412;18.884;2023-11-19T10:07:18;99453.34;;;4.36;97.39
56721;BME280;53183;47.412;18.884;2023-11-19T10:09:46;99446.41;;;4.35;96.33
56721;BME280;53183;47.412;18.884;2023-11-19T10:12:15;99444.22;;;4.49;96.38
56721;BME280;53183;47.412;18.884;2023-11-19T10:14:44;99444.22;;;4.49;96.70
56721;BME280;53183;47.412;18.884;2023-11-19T10:17:12;99445.56;;;4.62;95.47
56721;BME280;53183;47.412;18.884;2023-11-19T10:19:40;99433.91;;;4.73;95.05
56721;BME280;53183;47.412;18.884;2023-11-19T10:22:10;99429.44;;;4.76;94.38
56721;BME280;53183;47.412;18.884;2023-11-19T10:24:37;99424.44;;;4.68;94.24
56721;BME280;53183;47.412;18.884;2023-11-19T10:27:12;99425.88;;;4.79;93.90
56721;BME280;53183;47.412;18.884;2023-11-19T10:29:45;99403.41;;;4.72;94.73
56721;BME280;53183;47.412;18.884;2023-11-19T10:32:13;99413.50;;;4.84;94.74
56721;BME280;53183;47.412;18.884;2023-11-19T10:35:05;99412.44;;;4.89;94.18
56721;BME280;53183;47.412;18.884;2023-11-19T10:37:33;99410.34;;;5.01;94.28
56721;BME280;53183;47.412;18.884;2023-11-19T10:40:05;99408.47;;;5.04;94.45
56721;BME280;53183;47.412;18.884;2023-11-19T10:42:41;99400.09;;;5.20;92.66
56721;BME280;53183;47.412;18.884;2023-11-19T10:45:22;99409.03;;;5.14;93.79
56721;BME280;53183;47.412;18.884;2023-11-19T10:47:52;99419.25;;;5.22;94.59
56721;BME280;53183;47.412;18.884;2023-11-19T10:50:20;99419.44;;;5.15;96.81
56721;BME280;53183;47.412;18.884;2023-11-19T10:52:48;99405.84;;;5.04;95.75
56721;BME280;53183;47.412;18.884;2023-11-19T10:55:19;99407.56;;;5.05;95.32
56721;BME280;53183;47.412;18.884;2023-11-19T10:57:52;99396.53;;;5.22;93.09
56721;BME280;53183;47.412;18.884;2023-11-19T11:00:29;99399.50;;;5.11;95.19
56721;BME280;53183;47.412;18.884;2023-11-19T11:03:01;99390.38;;;4.97;96.99
56721;BME280;53183;47.412;18.884;2023-11-19T11:05:32;99387.06;;;4.91;96.98
56721;BME280;53183;47.412;18.884;2023-11-19T11:08:00;99393.09;;;4.93;97.24
56721;BME280;53183;47.412;18.884;2023-11-19T11:10:30;99379.25;;;4.90;98.12
56721;BME280;53183;47.412;18.884;2023-11-19T11:13:03;99374.75;;;4.93;97.90
56721;BME280;53183;47.412;18.884;2023-11-19T11:15:31;99359.16;;;5.17;97.37
56721;BME280;53183;47.412;18.884;2023-11-19T11:18:01;99344.94;;;5.24;95.96
56721;BME280;53183;47.412;18.884;2023-11-19T11:20:32;99327.91;;;5.36;95.65
56721;BME280;53183;47.412;18.884;2023-11-19T11:29:05;99342.16;;;5.54;98.91
56721;BME280;53183;47.412;18.884;2023-11-19T11:32:08;99331.19;;;5.17;98.41
56721;BME280;53183;47.412;18.884;2023-11-19T11:40:16;99356.34;;;4.97;100.00
56721;BME280;53183;47.412;18.884;2023-11-19T11:42:45;99352.53;;;5.07;100.00
56721;BME280;53183;47.412;18.884;2023-11-19T11:45:14;99336.91;;;5.04;100.00
56721;BME280;53183;47.412;18.884;2023-11-19T11:50:14;99327.75;;;4.90;100.00
56721;BME280;53183;47.412;18.884;2023-11-19T11:55:36;99325.53;;;4.78;100.00
56721;BME280;53183;47.412;18.884;2023-11-19T11:58:06;99316.66;;;4.82;100.00
56721;BME280;53183;47.412;18.884;2023-11-19T12:00:41;99310.75;;;5.02;100.00
56721;BME280;53183;47.412;18.884;2023-11-19T12:03:08;99304.47;;;5.08;100.00
56721;BME280;53183;47.412;18.884;2023-11-19T12:05:44;99290.34;;;5.12;100.00
56721;BME280;53183;47.412;18.884;2023-11-19T12:08:18;99290.50;;;5.07;100.00
56721;BME280;53183;47.412;18.884;2023-11-19T12:10:56;99289.78;;;5.04;100.00
56721;BME280;53183;47.412;18.884;2023-11-19T12:13:55;99286.06;;;4.84;100.00
56721;BME280;53183;47.412;18.884;2023-11-19T12:16:25;99284.19;;;5.13;100.00
56721;BME280;53183;47.412;18.884;2023-11-19T12:19:02;99275.88;;;5.27;100.00
56721;BME280;53183;47.412;18.884;2023-11-19T12:21:31;99266.16;;;5.29;100.00
56721;BME280;53183;47.412;18.884;2023-11-19T12:24:00;99266.69;;;5.38;100.00
56721;BME280;53183;47.412;18.884;2023-11-19T12:26:36;99254.84;;;5.52;100.00
56721;BME280;53183;47.412;18.884;2023-11-19T12:29:04;99262.03;;;5.47;100.00
56721;BME280;53183;47.412;18.884;2023-11-19T12:31:36;99260.72;;;5.58;100.00
56721;BME280;53183;47.412;18.884;2023-11-19T12:34:07;99254.44;;;5.39;99.57
56721;BME280;53183;47.412;18.884;2023-11-19T12:36:36;99247.16;;;5.47;98.01
56721;BME280;53183;47.412;18.884;2023-11-19T12:39:03;99237.97;;;5.35;98.87
56721;BME280;53183;47.412;18.884;2023-11-19T12:41:31;99229.88;;;5.18;99.72
56721;BME280;53183;47.412;18.884;2023-11-19T12:44:11;99228.97;;;5.19;100.00
56721;BME280;53183;47.412;18.884;2023-11-19T12:46:40;99222.41;;;5.07;100.00
56721;BME280;53183;47.412;18.884;2023-11-19T12:49:11;99218.66;;;5.14;100.00
56721;BME280;53183;47.412;18.884;2023-11-19T12:51:39;99205.25;;;4.99;100.00
56721;BME280;53183;47.412;18.884;2023-11-19T12:54:08;99195.81;;;4.94;100.00
56721;BME280;53183;47.412;18.884;2023-11-19T12:56:35;99187.84;;;4.98;100.00
56721;BME280;53183;47.412;18.884;2023-11-19T12:59:11;99196.88;;;4.89;100.00
56721;BME280;53183;47.412;18.884;2023-11-19T13:01:39;99180.09;;;4.69;100.00
56721;BME280;53183;47.412;18.884;2023-11-19T13:04:18;99188.66;;;4.75;100.00
56721;BME280;53183;47.412;18.884;2023-11-19T13:06:46;99206.69;;;4.82;100.00
56721;BME280;53183;47.412;18.884;2023-11-19T13:09:31;99210.72;;;4.92;100.00
56721;BME280;53183;47.412;18.884;2023-11-19T13:11:59;99211.53;;;4.94;100.00
56721;BME280;53183;47.412;18.884;2023-11-19T13:14:36;99204.72;;;4.89;100.00
56721;BME280;53183;47.412;18.884;2023-11-19T13:17:13;99206.13;;;4.74;100.00
56721;BME280;53183;47.412;18.884;2023-11-19T13:19:40;99208.03;;;4.69;100.00